sensor_id;sensor_type;location;lat;lon;timestamp;temperature;humidity
20398;DHT22;10358;49.590;11.030;2022-07-10T00:00:25;16.00;99.90
20398;DHT22;10358;49.590;11.030;2022-07-10T00:02:52;16.00;99.90
20398;DHT22;10358;49.590;11.030;2022-07-10T00:05:18;16.00;99.90
20398;DHT22;10358;49.590;11.030;2022-07-10T00:07:44;15.90;99.90
20398;DHT22;10358;49.590;11.030;2022-07-10T00:10:09;16.00;99.90
20398;DHT22;10358;49.590;11.030;2022-07-10T00:12:35;15.80;99.90
20398;DHT22;10358;49.590;11.030;2022-07-10T00:15:02;15.80;99.90
20398;DHT22;10358;49.590;11.030;2022-07-10T00:17:28;15.80;99.90
20398;DHT22;10358;49.590;11.030;2022-07-10T00:19:54;15.80;99.90
20398;DHT22;10358;49.590;11.030;2022-07-10T00:22:19;15.70;99.90
20398;DHT22;10358;49.590;11.030;2022-07-10T00:24:45;15.70;99.90
20398;DHT22;10358;49.590;11.030;2022-07-10T00:27:11;15.60;99.90
20398;DHT22;10358;49.590;11.030;2022-07-10T00:29:37;15.70;99.90
20398;DHT22;10358;49.590;11.030;2022-07-10T00:32:03;15.60;99.90
20398;DHT22;10358;49.590;11.030;2022-07-10T00:34:28;15.60;99.90
20398;DHT22;10358;49.590;11.030;2022-07-10T00:36:54;15.60;99.90
20398;DHT22;10358;49.590;11.030;2022-07-10T00:39:20;15.60;99.90
20398;DHT22;10358;49.590;11.030;2022-07-10T00:41:45;15.50;99.90
20398;DHT22;10358;49.590;11.030;2022-07-10T00:44:11;15.50;99.90
20398;DHT22;10358;49.590;11.030;2022-07-10T00:46:36;15.50;99.90
20398;DHT22;10358;49.590;11.030;2022-07-10T00:49:02;15.50;99.90
20398;DHT22;10358;49.590;11.030;2022-07-10T00:51:29;15.50;99.90
20398;DHT22;10358;49.590;11.030;2022-07-10T00:53:56;15.50;99.90
20398;DHT22;10358;49.590;11.030;2022-07-10T00:56:26;15.40;99.90
20398;DHT22;10358;49.590;11.030;2022-07-10T00:58:52;15.40;99.90
20398;DHT22;10358;49.590;11.030;2022-07-10T01:01:19;15.40;99.90
20398;DHT22;10358;49.590;11.030;2022-07-10T01:03:46;15.30;99.90
20398;DHT22;10358;49.590;11.030;2022-07-10T01:06:15;15.30;99.90
20398;DHT22;10358;49.590;11.030;2022-07-10T01:08:42;15.30;99.90
20398;DHT22;10358;49.590;11.030;2022-07-10T01:11:09;15.20;99.90
20398;DHT22;10358;49.590;11.030;2022-07-10T01:13:35;15.20;99.90
20398;DHT22;10358;49.590;11.030;2022-07-10T01:16:01;15.20;99.90
20398;DHT22;10358;49.590;11.030;2022-07-10T01:18:27;15.10;99.90
20398;DHT22;10358;49.590;11.030;2022-07-10T01:20:53;15.10;99.90
20398;DHT22;10358;49.590;11.030;2022-07-10T01:23:19;15.10;99.90
20398;DHT22;10358;49.590;11.030;2022-07-10T01:25:45;15.10;99.90
20398;DHT22;10358;49.590;11.030;2022-07-10T01:28:11;15.10;99.90
20398;DHT22;10358;49.590;11.030;2022-07-10T01:30:36;15.10;99.90
20398;DHT22;10358;49.590;11.030;2022-07-10T01:33:02;15.20;99.90
20398;DHT22;10358;49.590;11.030;2022-07-10T01:35:28;15.20;99.90
20398;DHT22;10358;49.590;11.030;2022-07-10T01:37:54;15.20;99.90
20398;DHT22;10358;49.590;11.030;2022-07-10T01:40:19;15.20;99.90
20398;DHT22;10358;49.590;11.030;2022-07-10T01:42:45;15.20;99.90
20398;DHT22;10358;49.590;11.030;2022-07-10T01:45:11;15.20;99.90
20398;DHT22;10358;49.590;11.030;2022-07-10T01:47:37;15.30;99.90
20398;DHT22;10358;49.590;11.030;2022-07-10T01:50:03;15.30;99.90
20398;DHT22;10358;49.590;11.030;2022-07-10T01:52:29;15.30;99.90
20398;DHT22;10358;49.590;11.030;2022-07-10T01:54:55;15.30;99.90
20398;DHT22;10358;49.590;11.030;2022-07-10T01:57:20;15.30;99.90
20398;DHT22;10358;49.590;11.030;2022-07-10T01:59:46;15.20;99.90
20398;DHT22;10358;49.590;11.030;2022-07-10T02:02:11;15.30;99.90
20398;DHT22;10358;49.590;11.030;2022-07-10T02:04:37;15.20;99.90
20398;DHT22;10358;49.590;11.030;2022-07-10T02:07:14;15.30;99.90
20398;DHT22;10358;49.590;11.030;2022-07-10T02:09:41;15.20;99.90
20398;DHT22;10358;49.590;11.030;2022-07-10T02:12:08;15.30;99.90
20398;DHT22;10358;49.590;11.030;2022-07-10T02:14:34;15.30;99.90
20398;DHT22;10358;49.590;11.030;2022-07-10T02:17:00;15.30;99.90
20398;DHT22;10358;49.590;11.030;2022-07-10T02:19:26;15.30;99.90
20398;DHT22;10358;49.590;11.030;2022-07-10T02:21:52;15.30;99.90
20398;DHT22;10358;49.590;11.030;2022-07-10T02:24:18;15.20;99.90
20398;DHT22;10358;49.590;11.030;2022-07-10T02:26:43;15.10;99.90
20398;DHT22;10358;49.590;11.030;2022-07-10T02:29:09;15.10;99.90
20398;DHT22;10358;49.590;11.030;2022-07-10T02:31:35;15.00;99.90
20398;DHT22;10358;49.590;11.030;2022-07-10T02:34:06;15.00;99.90
20398;DHT22;10358;49.590;11.030;2022-07-10T02:36:31;14.90;99.90
20398;DHT22;10358;49.590;11.030;2022-07-10T02:38:57;14.90;99.90
20398;DHT22;10358;49.590;11.030;2022-07-10T02:41:23;14.80;99.90
20398;DHT22;10358;49.590;11.030;2022-07-10T02:43:48;14.80;99.90
20398;DHT22;10358;49.590;11.030;2022-07-10T02:46:14;14.70;99.90
20398;DHT22;10358;49.590;11.030;2022-07-10T02:48:39;14.80;99.90
20398;DHT22;10358;49.590;11.030;2022-07-10T02:51:05;14.80;99.90
20398;DHT22;10358;49.590;11.030;2022-07-10T02:53:30;14.80;99.90
20398;DHT22;10358;49.590;11.030;2022-07-10T02:55:56;14.90;99.90
20398;DHT22;10358;49.590;11.030;2022-07-10T02:58:22;14.90;99.90
20398;DHT22;10358;49.590;11.030;2022-07-10T03:00:48;14.80;99.90
20398;DHT22;10358;49.590;11.030;2022-07-10T03:03:13;14.80;99.90
20398;DHT22;10358;49.590;11.030;2022-07-10T03:05:39;14.70;99.90
20398;DHT22;10358;49.590;11.030;2022-07-10T03:08:05;14.70;99.90
20398;DHT22;10358;49.590;11.030;2022-07-10T03:10:30;14.60;99.90
20398;DHT22;10358;49.590;11.030;2022-07-10T03:12:56;14.60;99.90
20398;DHT22;10358;49.590;11.030;2022-07-10T03:15:21;14.50;99.90
20398;DHT22;10358;49.590;11.030;2022-07-10T03:17:47;14.50;99.90
20398;DHT22;10358;49.590;11.030;2022-07-10T03:20:12;14.50;99.90
20398;DHT22;10358;49.590;11.030;2022-07-10T03:22:38;14.40;99.90
20398;DHT22;10358;49.590;11.030;2022-07-10T03:25:04;14.30;99.90
20398;DHT22;10358;49.590;11.030;2022-07-10T03:27:30;14.30;99.90
20398;DHT22;10358;49.590;11.030;2022-07-10T03:29:56;14.30;99.90
20398;DHT22;10358;49.590;11.030;2022-07-10T03:32:21;14.30;99.90
20398;DHT22;10358;49.590;11.030;2022-07-10T03:34:47;14.30;99.90
20398;DHT22;10358;49.590;11.030;2022-07-10T03:37:12;14.20;99.90
20398;DHT22;10358;49.590;11.030;2022-07-10T03:39:38;14.20;99.90
20398;DHT22;10358;49.590;11.030;2022-07-10T03:42:04;14.20;99.90
20398;DHT22;10358;49.590;11.030;2022-07-10T03:44:30;14.20;99.90
20398;DHT22;10358;49.590;11.030;2022-07-10T03:46:55;14.20;99.90
20398;DHT22;10358;49.590;11.030;2022-07-10T03:49:21;14.20;99.90
20398;DHT22;10358;49.590;11.030;2022-07-10T03:51:46;14.20;99.90
20398;DHT22;10358;49.590;11.030;2022-07-10T03:54:12;14.20;99.90
20398;DHT22;10358;49.590;11.030;2022-07-10T03:56:37;14.10;99.90
20398;DHT22;10358;49.590;11.030;2022-07-10T03:59:22;14.10;99.90
20398;DHT22;10358;49.590;11.030;2022-07-10T04:01:47;14.10;99.90
20398;DHT22;10358;49.590;11.030;2022-07-10T04:04:13;14.00;99.90
20398;DHT22;10358;49.590;11.030;2022-07-10T04:06:38;13.90;99.90
20398;DHT22;10358;49.590;11.030;2022-07-10T04:09:05;13.80;99.90
20398;DHT22;10358;49.590;11.030;2022-07-10T04:11:31;13.80;99.90
20398;DHT22;10358;49.590;11.030;2022-07-10T04:13:56;13.80;99.90
20398;DHT22;10358;49.590;11.030;2022-07-10T04:16:22;13.70;99.90
20398;DHT22;10358;49.590;11.030;2022-07-10T04:18:48;13.70;99.90
20398;DHT22;10358;49.590;11.030;2022-07-10T04:21:14;13.70;99.90
20398;DHT22;10358;49.590;11.030;2022-07-10T04:23:39;13.70;99.90
20398;DHT22;10358;49.590;11.030;2022-07-10T04:26:05;13.70;99.90
20398;DHT22;10358;49.590;11.030;2022-07-10T04:28:31;13.70;99.90
20398;DHT22;10358;49.590;11.030;2022-07-10T04:30:56;13.70;99.90
20398;DHT22;10358;49.590;11.030;2022-07-10T04:33:22;13.70;99.90
20398;DHT22;10358;49.590;11.030;2022-07-10T04:35:47;13.70;99.90
20398;DHT22;10358;49.590;11.030;2022-07-10T04:38:13;13.70;99.90
20398;DHT22;10358;49.590;11.030;2022-07-10T04:40:39;13.70;99.90
20398;DHT22;10358;49.590;11.030;2022-07-10T04:43:04;13.80;99.90
20398;DHT22;10358;49.590;11.030;2022-07-10T04:45:30;13.80;99.90
20398;DHT22;10358;49.590;11.030;2022-07-10T04:47:55;13.80;99.90
20398;DHT22;10358;49.590;11.030;2022-07-10T04:50:21;13.90;99.90
20398;DHT22;10358;49.590;11.030;2022-07-10T04:52:47;13.90;99.90
20398;DHT22;10358;49.590;11.030;2022-07-10T04:55:12;13.90;99.90
20398;DHT22;10358;49.590;11.030;2022-07-10T04:57:38;14.00;99.90
20398;DHT22;10358;49.590;11.030;2022-07-10T05:00:04;13.90;99.90
20398;DHT22;10358;49.590;11.030;2022-07-10T05:02:30;14.00;99.90
20398;DHT22;10358;49.590;11.030;2022-07-10T05:04:56;13.90;99.90
20398;DHT22;10358;49.590;11.030;2022-07-10T05:07:21;13.90;99.90
20398;DHT22;10358;49.590;11.030;2022-07-10T05:09:47;13.90;99.90
20398;DHT22;10358;49.590;11.030;2022-07-10T05:12:12;13.90;99.90
20398;DHT22;10358;49.590;11.030;2022-07-10T05:14:38;14.00;99.90
20398;DHT22;10358;49.590;11.030;2022-07-10T05:17:04;14.00;99.90
20398;DHT22;10358;49.590;11.030;2022-07-10T05:19:29;14.10;99.90
20398;DHT22;10358;49.590;11.030;2022-07-10T05:21:55;14.10;99.90
20398;DHT22;10358;49.590;11.030;2022-07-10T05:24:20;14.10;99.90
20398;DHT22;10358;49.590;11.030;2022-07-10T05:26:46;14.20;99.90
20398;DHT22;10358;49.590;11.030;2022-07-10T05:29:12;14.30;99.90
20398;DHT22;10358;49.590;11.030;2022-07-10T05:31:37;14.20;99.90
20398;DHT22;10358;49.590;11.030;2022-07-10T05:34:03;14.10;99.90
20398;DHT22;10358;49.590;11.030;2022-07-10T05:36:28;14.10;99.90
20398;DHT22;10358;49.590;11.030;2022-07-10T05:38:54;14.00;99.90
20398;DHT22;10358;49.590;11.030;2022-07-10T05:41:20;14.10;99.90
20398;DHT22;10358;49.590;11.030;2022-07-10T05:43:45;14.10;99.90
20398;DHT22;10358;49.590;11.030;2022-07-10T05:46:11;14.10;99.90
20398;DHT22;10358;49.590;11.030;2022-07-10T05:48:36;14.20;99.90
20398;DHT22;10358;49.590;11.030;2022-07-10T05:51:04;14.20;99.90
20398;DHT22;10358;49.590;11.030;2022-07-10T05:53:29;14.30;99.90
20398;DHT22;10358;49.590;11.030;2022-07-10T05:55:59;14.20;99.00
20398;DHT22;10358;49.590;11.030;2022-07-10T05:58:24;14.30;99.00
20398;DHT22;10358;49.590;11.030;2022-07-10T06:00:50;14.30;98.50
20398;DHT22;10358;49.590;11.030;2022-07-10T06:03:16;14.40;98.40
20398;DHT22;10358;49.590;11.030;2022-07-10T06:05:42;14.30;98.10
20398;DHT22;10358;49.590;11.030;2022-07-10T06:08:07;14.30;98.50
20398;DHT22;10358;49.590;11.030;2022-07-10T06:10:33;14.30;99.00
20398;DHT22;10358;49.590;11.030;2022-07-10T06:12:59;14.40;98.90
20398;DHT22;10358;49.590;11.030;2022-07-10T06:15:24;14.40;98.70
20398;DHT22;10358;49.590;11.030;2022-07-10T06:17:50;14.40;98.60
20398;DHT22;10358;49.590;11.030;2022-07-10T06:20:15;14.50;98.50
20398;DHT22;10358;49.590;11.030;2022-07-10T06:22:41;14.50;98.50
20398;DHT22;10358;49.590;11.030;2022-07-10T06:25:08;14.60;98.10
20398;DHT22;10358;49.590;11.030;2022-07-10T06:27:34;14.70;98.40
20398;DHT22;10358;49.590;11.030;2022-07-10T06:30:00;14.80;97.80
20398;DHT22;10358;49.590;11.030;2022-07-10T06:32:25;15.00;97.20
20398;DHT22;10358;49.590;11.030;2022-07-10T06:34:53;15.00;97.30
20398;DHT22;10358;49.590;11.030;2022-07-10T06:37:19;14.90;96.90
20398;DHT22;10358;49.590;11.030;2022-07-10T06:39:45;14.90;97.00
20398;DHT22;10358;49.590;11.030;2022-07-10T06:42:12;14.80;97.30
20398;DHT22;10358;49.590;11.030;2022-07-10T06:44:38;14.80;96.70
20398;DHT22;10358;49.590;11.030;2022-07-10T06:47:04;14.70;95.70
20398;DHT22;10358;49.590;11.030;2022-07-10T06:49:49;14.60;95.90
20398;DHT22;10358;49.590;11.030;2022-07-10T06:52:15;14.60;95.90
20398;DHT22;10358;49.590;11.030;2022-07-10T06:54:41;14.60;96.40
20398;DHT22;10358;49.590;11.030;2022-07-10T06:57:07;14.70;95.70
20398;DHT22;10358;49.590;11.030;2022-07-10T06:59:33;14.70;94.80
20398;DHT22;10358;49.590;11.030;2022-07-10T07:01:59;14.90;92.30
20398;DHT22;10358;49.590;11.030;2022-07-10T07:04:24;15.10;90.90
20398;DHT22;10358;49.590;11.030;2022-07-10T07:06:50;15.10;88.90
20398;DHT22;10358;49.590;11.030;2022-07-10T07:09:15;15.20;86.80
20398;DHT22;10358;49.590;11.030;2022-07-10T07:11:41;15.40;85.30
20398;DHT22;10358;49.590;11.030;2022-07-10T07:14:07;15.60;82.70
20398;DHT22;10358;49.590;11.030;2022-07-10T07:16:32;15.80;81.70
20398;DHT22;10358;49.590;11.030;2022-07-10T07:19:08;15.90;75.60
20398;DHT22;10358;49.590;11.030;2022-07-10T07:21:35;15.80;72.20
20398;DHT22;10358;49.590;11.030;2022-07-10T07:24:20;15.70;72.50
20398;DHT22;10358;49.590;11.030;2022-07-10T07:26:46;15.50;72.90
20398;DHT22;10358;49.590;11.030;2022-07-10T07:29:13;15.50;72.00
20398;DHT22;10358;49.590;11.030;2022-07-10T07:31:39;15.50;70.00
20398;DHT22;10358;49.590;11.030;2022-07-10T07:34:05;15.60;69.10
20398;DHT22;10358;49.590;11.030;2022-07-10T07:36:30;15.80;68.70
20398;DHT22;10358;49.590;11.030;2022-07-10T07:38:56;15.70;68.40
20398;DHT22;10358;49.590;11.030;2022-07-10T07:41:22;15.70;67.90
20398;DHT22;10358;49.590;11.030;2022-07-10T07:43:48;15.60;68.80
20398;DHT22;10358;49.590;11.030;2022-07-10T07:46:14;15.60;68.00
20398;DHT22;10358;49.590;11.030;2022-07-10T07:48:39;15.60;67.50
20398;DHT22;10358;49.590;11.030;2022-07-10T07:51:05;15.40;68.00
20398;DHT22;10358;49.590;11.030;2022-07-10T07:53:30;15.40;68.40
20398;DHT22;10358;49.590;11.030;2022-07-10T07:55:56;15.50;68.50
20398;DHT22;10358;49.590;11.030;2022-07-10T07:58:21;15.70;67.20
20398;DHT22;10358;49.590;11.030;2022-07-10T08:00:47;15.80;64.90
20398;DHT22;10358;49.590;11.030;2022-07-10T08:03:12;15.80;64.70
20398;DHT22;10358;49.590;11.030;2022-07-10T08:05:38;15.90;64.30
20398;DHT22;10358;49.590;11.030;2022-07-10T08:08:03;15.90;63.70
20398;DHT22;10358;49.590;11.030;2022-07-10T08:10:34;16.00;63.90
20398;DHT22;10358;49.590;11.030;2022-07-10T08:13:00;16.10;64.70
20398;DHT22;10358;49.590;11.030;2022-07-10T08:15:26;16.30;64.90
20398;DHT22;10358;49.590;11.030;2022-07-10T08:17:53;16.40;64.40
20398;DHT22;10358;49.590;11.030;2022-07-10T08:20:19;16.50;62.90
20398;DHT22;10358;49.590;11.030;2022-07-10T08:22:45;16.50;63.60
20398;DHT22;10358;49.590;11.030;2022-07-10T08:25:12;16.40;62.70
20398;DHT22;10358;49.590;11.030;2022-07-10T08:27:38;16.30;63.20
20398;DHT22;10358;49.590;11.030;2022-07-10T08:30:05;16.30;62.90
20398;DHT22;10358;49.590;11.030;2022-07-10T08:32:31;16.20;63.00
20398;DHT22;10358;49.590;11.030;2022-07-10T08:34:57;16.30;63.60
20398;DHT22;10358;49.590;11.030;2022-07-10T08:37:23;16.40;64.70
20398;DHT22;10358;49.590;11.030;2022-07-10T08:39:49;16.60;62.90
20398;DHT22;10358;49.590;11.030;2022-07-10T08:42:16;16.70;62.40
20398;DHT22;10358;49.590;11.030;2022-07-10T08:44:42;16.80;61.70
20398;DHT22;10358;49.590;11.030;2022-07-10T08:47:08;16.90;60.80
20398;DHT22;10358;49.590;11.030;2022-07-10T08:49:33;17.10;61.30
20398;DHT22;10358;49.590;11.030;2022-07-10T08:52:06;17.20;60.00
20398;DHT22;10358;49.590;11.030;2022-07-10T08:54:33;17.30;58.40
20398;DHT22;10358;49.590;11.030;2022-07-10T08:57:01;17.20;58.80
20398;DHT22;10358;49.590;11.030;2022-07-10T08:59:28;17.20;59.00
20398;DHT22;10358;49.590;11.030;2022-07-10T09:01:54;17.30;58.60
20398;DHT22;10358;49.590;11.030;2022-07-10T09:04:23;17.30;58.00
20398;DHT22;10358;49.590;11.030;2022-07-10T09:06:50;17.30;58.10
20398;DHT22;10358;49.590;11.030;2022-07-10T09:09:16;17.30;58.90
20398;DHT22;10358;49.590;11.030;2022-07-10T09:11:42;17.30;58.60
20398;DHT22;10358;49.590;11.030;2022-07-10T09:14:16;17.20;59.10
20398;DHT22;10358;49.590;11.030;2022-07-10T09:16:44;17.20;59.20
20398;DHT22;10358;49.590;11.030;2022-07-10T09:19:19;17.30;59.20
20398;DHT22;10358;49.590;11.030;2022-07-10T09:21:46;17.30;58.90
20398;DHT22;10358;49.590;11.030;2022-07-10T09:24:12;17.10;59.00
20398;DHT22;10358;49.590;11.030;2022-07-10T09:26:39;17.10;59.00
20398;DHT22;10358;49.590;11.030;2022-07-10T09:29:07;17.00;59.30
20398;DHT22;10358;49.590;11.030;2022-07-10T09:31:49;17.00;59.50
20398;DHT22;10358;49.590;11.030;2022-07-10T09:34:17;16.90;60.10
20398;DHT22;10358;49.590;11.030;2022-07-10T09:36:43;16.90;60.30
20398;DHT22;10358;49.590;11.030;2022-07-10T09:39:08;17.00;60.60
20398;DHT22;10358;49.590;11.030;2022-07-10T09:41:34;17.00;59.40
20398;DHT22;10358;49.590;11.030;2022-07-10T09:44:03;17.00;59.70
20398;DHT22;10358;49.590;11.030;2022-07-10T09:46:39;17.00;59.40
20398;DHT22;10358;49.590;11.030;2022-07-10T09:49:15;17.00;58.70
20398;DHT22;10358;49.590;11.030;2022-07-10T09:51:45;17.20;59.10
20398;DHT22;10358;49.590;11.030;2022-07-10T09:54:11;17.10;58.70
20398;DHT22;10358;49.590;11.030;2022-07-10T09:59:15;17.00;59.90
20398;DHT22;10358;49.590;11.030;2022-07-10T10:01:50;17.00;59.50
20398;DHT22;10358;49.590;11.030;2022-07-10T10:04:18;17.00;60.00
20398;DHT22;10358;49.590;11.030;2022-07-10T10:06:50;17.00;60.00
20398;DHT22;10358;49.590;11.030;2022-07-10T10:11:49;17.10;59.70
20398;DHT22;10358;49.590;11.030;2022-07-10T10:14:19;17.10;60.00
20398;DHT22;10358;49.590;11.030;2022-07-10T10:16:47;17.20;60.10
20398;DHT22;10358;49.590;11.030;2022-07-10T10:19:14;17.30;60.00
20398;DHT22;10358;49.590;11.030;2022-07-10T10:21:59;17.30;59.80
20398;DHT22;10358;49.590;11.030;2022-07-10T10:24:26;17.40;59.70
20398;DHT22;10358;49.590;11.030;2022-07-10T10:26:55;17.40;59.20
20398;DHT22;10358;49.590;11.030;2022-07-10T10:29:21;17.40;59.00
20398;DHT22;10358;49.590;11.030;2022-07-10T10:31:46;17.40;59.50
20398;DHT22;10358;49.590;11.030;2022-07-10T10:34:12;17.40;59.60
20398;DHT22;10358;49.590;11.030;2022-07-10T10:39:17;17.50;58.70
20398;DHT22;10358;49.590;11.030;2022-07-10T10:44:19;17.40;59.10
20398;DHT22;10358;49.590;11.030;2022-07-10T10:49:23;17.10;60.50
20398;DHT22;10358;49.590;11.030;2022-07-10T10:54:20;16.90;61.30
20398;DHT22;10358;49.590;11.030;2022-07-10T10:57:16;16.90;61.30
20398;DHT22;10358;49.590;11.030;2022-07-10T11:02:31;17.20;61.50
20398;DHT22;10358;49.590;11.030;2022-07-10T11:07:52;17.30;61.20
20398;DHT22;10358;49.590;11.030;2022-07-10T11:13:05;17.50;61.30
20398;DHT22;10358;49.590;11.030;2022-07-10T11:15:37;17.50;60.60
20398;DHT22;10358;49.590;11.030;2022-07-10T11:18:16;17.70;59.60
20398;DHT22;10358;49.590;11.030;2022-07-10T11:20:47;17.80;59.40
20398;DHT22;10358;49.590;11.030;2022-07-10T11:23:38;17.70;60.60
20398;DHT22;10358;49.590;11.030;2022-07-10T11:26:10;17.90;60.60
20398;DHT22;10358;49.590;11.030;2022-07-10T11:28:55;18.10;58.20
20398;DHT22;10358;49.590;11.030;2022-07-10T11:31:25;18.30;57.00
20398;DHT22;10358;49.590;11.030;2022-07-10T11:33:53;18.30;56.90
20398;DHT22;10358;49.590;11.030;2022-07-10T11:36:20;18.40;56.10
20398;DHT22;10358;49.590;11.030;2022-07-10T11:38:47;18.40;55.40
20398;DHT22;10358;49.590;11.030;2022-07-10T11:41:18;18.30;55.10
20398;DHT22;10358;49.590;11.030;2022-07-10T11:44:04;18.20;55.60
20398;DHT22;10358;49.590;11.030;2022-07-10T11:46:34;18.20;55.80
20398;DHT22;10358;49.590;11.030;2022-07-10T11:49:04;18.30;55.50
20398;DHT22;10358;49.590;11.030;2022-07-10T11:51:35;18.30;55.20
20398;DHT22;10358;49.590;11.030;2022-07-10T11:54:15;18.20;55.10
20398;DHT22;10358;49.590;11.030;2022-07-10T11:59:15;18.20;55.50
20398;DHT22;10358;49.590;11.030;2022-07-10T12:01:46;18.30;55.20
20398;DHT22;10358;49.590;11.030;2022-07-10T12:04:13;18.30;55.30
20398;DHT22;10358;49.590;11.030;2022-07-10T12:06:41;18.40;55.10
20398;DHT22;10358;49.590;11.030;2022-07-10T12:09:10;18.60;54.10
20398;DHT22;10358;49.590;11.030;2022-07-10T12:11:36;18.60;53.60
20398;DHT22;10358;49.590;11.030;2022-07-10T12:14:15;18.50;53.70
20398;DHT22;10358;49.590;11.030;2022-07-10T12:16:43;18.50;54.10
20398;DHT22;10358;49.590;11.030;2022-07-10T12:19:13;18.40;54.20
20398;DHT22;10358;49.590;11.030;2022-07-10T12:21:42;18.60;55.50
20398;DHT22;10358;49.590;11.030;2022-07-10T12:24:08;18.80;54.20
20398;DHT22;10358;49.590;11.030;2022-07-10T12:26:36;18.70;53.30
20398;DHT22;10358;49.590;11.030;2022-07-10T12:29:02;18.70;53.60
20398;DHT22;10358;49.590;11.030;2022-07-10T12:31:50;18.80;53.30
20398;DHT22;10358;49.590;11.030;2022-07-10T12:34:16;18.70;53.20
20398;DHT22;10358;49.590;11.030;2022-07-10T12:39:14;18.40;54.50
20398;DHT22;10358;49.590;11.030;2022-07-10T12:42:03;18.50;54.30
20398;DHT22;10358;49.590;11.030;2022-07-10T12:44:33;18.50;54.00
20398;DHT22;10358;49.590;11.030;2022-07-10T12:47:04;18.70;54.20
20398;DHT22;10358;49.590;11.030;2022-07-10T12:49:57;18.80;53.30
20398;DHT22;10358;49.590;11.030;2022-07-10T12:52:31;18.80;53.80
20398;DHT22;10358;49.590;11.030;2022-07-10T12:57:33;19.40;52.80
20398;DHT22;10358;49.590;11.030;2022-07-10T13:00:05;19.40;52.00
20398;DHT22;10358;49.590;11.030;2022-07-10T13:02:31;19.50;52.40
20398;DHT22;10358;49.590;11.030;2022-07-10T13:04:57;19.80;52.00
20398;DHT22;10358;49.590;11.030;2022-07-10T13:07:35;19.90;51.10
20398;DHT22;10358;49.590;11.030;2022-07-10T13:10:07;19.70;51.10
20398;DHT22;10358;49.590;11.030;2022-07-10T13:12:34;19.60;51.20
20398;DHT22;10358;49.590;11.030;2022-07-10T13:15:03;19.60;51.20
20398;DHT22;10358;49.590;11.030;2022-07-10T13:17:28;19.50;51.50
20398;DHT22;10358;49.590;11.030;2022-07-10T13:19:54;19.30;52.00
20398;DHT22;10358;49.590;11.030;2022-07-10T13:22:20;19.30;52.40
20398;DHT22;10358;49.590;11.030;2022-07-10T13:24:46;19.20;52.60
20398;DHT22;10358;49.590;11.030;2022-07-10T13:27:11;19.20;53.10
20398;DHT22;10358;49.590;11.030;2022-07-10T13:29:37;19.40;52.80
20398;DHT22;10358;49.590;11.030;2022-07-10T13:32:03;19.40;52.60
20398;DHT22;10358;49.590;11.030;2022-07-10T13:34:28;19.30;52.60
20398;DHT22;10358;49.590;11.030;2022-07-10T13:36:55;19.20;52.70
20398;DHT22;10358;49.590;11.030;2022-07-10T13:39:20;19.10;52.90
20398;DHT22;10358;49.590;11.030;2022-07-10T13:41:46;18.90;53.40
20398;DHT22;10358;49.590;11.030;2022-07-10T13:44:11;18.90;53.80
20398;DHT22;10358;49.590;11.030;2022-07-10T13:46:37;19.00;53.80
20398;DHT22;10358;49.590;11.030;2022-07-10T13:49:05;19.00;53.80
20398;DHT22;10358;49.590;11.030;2022-07-10T13:51:31;19.10;53.70
20398;DHT22;10358;49.590;11.030;2022-07-10T13:53:56;19.30;53.40
20398;DHT22;10358;49.590;11.030;2022-07-10T13:56:22;19.40;52.50
20398;DHT22;10358;49.590;11.030;2022-07-10T13:58:49;19.60;51.70
20398;DHT22;10358;49.590;11.030;2022-07-10T14:01:14;19.80;51.30
20398;DHT22;10358;49.590;11.030;2022-07-10T14:03:40;19.80;51.00
20398;DHT22;10358;49.590;11.030;2022-07-10T14:06:05;19.60;51.30
20398;DHT22;10358;49.590;11.030;2022-07-10T14:08:31;19.60;51.50
20398;DHT22;10358;49.590;11.030;2022-07-10T14:10:57;19.40;51.50
20398;DHT22;10358;49.590;11.030;2022-07-10T14:13:22;19.30;51.90
20398;DHT22;10358;49.590;11.030;2022-07-10T14:15:48;19.20;52.50
20398;DHT22;10358;49.590;11.030;2022-07-10T14:18:13;19.10;52.10
20398;DHT22;10358;49.590;11.030;2022-07-10T14:20:59;18.90;52.60
20398;DHT22;10358;49.590;11.030;2022-07-10T14:23:27;18.90;52.40
20398;DHT22;10358;49.590;11.030;2022-07-10T14:25:53;19.00;52.60
20398;DHT22;10358;49.590;11.030;2022-07-10T14:28:20;19.10;52.70
20398;DHT22;10358;49.590;11.030;2022-07-10T14:30:46;19.30;52.70
20398;DHT22;10358;49.590;11.030;2022-07-10T14:33:11;19.60;52.30
20398;DHT22;10358;49.590;11.030;2022-07-10T14:35:37;19.70;52.00
20398;DHT22;10358;49.590;11.030;2022-07-10T14:38:02;19.90;51.60
20398;DHT22;10358;49.590;11.030;2022-07-10T14:40:28;20.10;51.50
20398;DHT22;10358;49.590;11.030;2022-07-10T14:42:54;20.00;51.10
20398;DHT22;10358;49.590;11.030;2022-07-10T14:45:22;19.90;51.40
20398;DHT22;10358;49.590;11.030;2022-07-10T14:47:49;19.90;51.50
20398;DHT22;10358;49.590;11.030;2022-07-10T14:50:15;20.10;51.60
20398;DHT22;10358;49.590;11.030;2022-07-10T14:52:44;20.10;51.50
20398;DHT22;10358;49.590;11.030;2022-07-10T14:55:11;20.10;51.20
20398;DHT22;10358;49.590;11.030;2022-07-10T14:57:37;20.00;51.00
20398;DHT22;10358;49.590;11.030;2022-07-10T15:00:03;19.90;51.10
20398;DHT22;10358;49.590;11.030;2022-07-10T15:02:29;19.70;51.50
20398;DHT22;10358;49.590;11.030;2022-07-10T15:04:54;19.60;51.50
20398;DHT22;10358;49.590;11.030;2022-07-10T15:07:21;19.50;51.80
20398;DHT22;10358;49.590;11.030;2022-07-10T15:09:46;19.60;51.90
20398;DHT22;10358;49.590;11.030;2022-07-10T15:12:12;19.60;51.50
20398;DHT22;10358;49.590;11.030;2022-07-10T15:14:38;19.70;51.70
20398;DHT22;10358;49.590;11.030;2022-07-10T15:17:04;20.10;51.30
20398;DHT22;10358;49.590;11.030;2022-07-10T15:19:30;20.30;50.90
20398;DHT22;10358;49.590;11.030;2022-07-10T15:21:56;20.50;50.70
20398;DHT22;10358;49.590;11.030;2022-07-10T15:24:21;21.40;49.40
20398;DHT22;10358;49.590;11.030;2022-07-10T15:26:47;22.00;48.20
20398;DHT22;10358;49.590;11.030;2022-07-10T15:29:12;22.10;47.50
20398;DHT22;10358;49.590;11.030;2022-07-10T15:31:38;22.00;47.20
20398;DHT22;10358;49.590;11.030;2022-07-10T15:34:09;21.70;44.90
20398;DHT22;10358;49.590;11.030;2022-07-10T15:36:37;21.30;45.20
20398;DHT22;10358;49.590;11.030;2022-07-10T15:39:03;22.00;44.60
20398;DHT22;10358;49.590;11.030;2022-07-10T15:41:28;22.80;43.30
20398;DHT22;10358;49.590;11.030;2022-07-10T15:43:55;23.30;41.70
20398;DHT22;10358;49.590;11.030;2022-07-10T15:46:20;23.90;41.20